Terminal Aerodrome Forecast
Issued by NWS

Home | Current Version | Previous Version | Text Only | Print | Product List | Glossary On
Versions: 1 2 3 4 5 6 7 8 9 10 11 12 13 14 15 16 17 18 19 20 21 22
000
FTUS44 KMAF 041700
TAFFST
TAF
KFST 041721Z 0418/0518 33012KT P6SM BKN100
     FM042100 03018G28KT 4SM -RA BR OVC012
     FM050000 05014G22KT 1SM -FZRAPL BR OVC008
     FM050400 05012G18KT 1SM -SN BR OVC006
     FM051200 35008KT P6SM BKN025=

USA.gov is the U.S. government's official web portal to all federal, state and local government web resources and services.